Time;durP1;ratioP1;P1;durP2;ratioP2;P2;SDS_P1;SDS_P2;PMS_P1;PMS_P2;Temp;Humidity;BMP_temperature;BMP_pressure;BME280_temperature;BME280_humidity;BME280_pressure;Samples;Min_cycle;Max_cycle;Signal;HPM_P1;HPM_P2
2023/02/28 06:39:56;;;;;;;;;1.50;1.50;;;;;17.45;38.73;102417.44;5118785;27;45826;-80
2023/02/28 06:42:25;;;;;;;;;1.00;1.00;;;;;17.96;39.61;102405.56;5117028;27;45343;-80
2023/02/28 06:44:51;;;;;;;;;2.00;2.00;;;;;18.79;40.36;102407.75;5114062;27;45543;-80
2023/02/28 06:47:16;;;;;;;;;2.25;2.25;;;;;19.66;39.75;102414.81;5112105;27;45661;-80
2023/02/28 06:49:41;;;;;;;;;2.75;2.75;;;;;20.49;39.42;102407.50;5111730;27;45419;-80
2023/02/28 06:52:08;;;;;;;;;2.50;2.50;;;;;21.24;39.46;102413.03;5109358;27;50307;-80
2023/02/28 06:54:33;;;;;;;;;2.00;2.00;;;;;21.85;39.00;102413.97;5110330;27;45811;-80
2023/02/28 06:56:59;;;;;;;;;4.50;3.00;;;;;22.47;38.91;102417.34;5109953;27;45429;-83
2023/02/28 06:59:24;;;;;;;;;2.00;2.00;;;;;22.99;38.00;102407.91;5108233;27;55376;-80
2023/02/28 07:01:49;;;;;;;;;2.33;1.67;;;;;23.45;38.17;102411.41;5116683;27;45888;-82
2023/02/28 07:04:15;;;;;;;;;2.00;2.00;;;;;23.89;37.78;102414.09;5112475;27;45346;-80
2023/02/28 07:06:40;;;;;;;;;4.67;2.67;;;;;24.27;37.20;102417.22;5112524;27;45423;-81
2023/02/28 07:09:06;;;;;;;;;1.00;1.00;;;;;24.63;37.05;102416.84;5110801;27;51724;-80
2023/02/28 07:11:31;;;;;;;;;2.00;2.00;;;;;24.93;36.63;102412.44;5112145;27;45451;-81
2023/02/28 07:13:57;;;;;;;;;2.00;2.00;;;;;25.26;36.31;102420.41;5100921;27;45731;-82
2023/02/28 07:16:24;;;;;;;;;2.00;2.00;;;;;25.51;36.31;102420.88;5098863;27;45386;-82
2023/02/28 07:18:52;;;;;;;;;1.67;1.67;;;;;25.77;35.89;102423.06;5110955;27;45441;-82
2023/02/28 07:21:17;;;;;;;;;1.00;1.00;;;;;25.96;35.59;102419.47;5108376;27;45552;-85
2023/02/28 07:23:43;;;;;;;;;0.67;0.67;;;;;26.16;35.28;102428.44;5123968;27;45393;-78
2023/02/28 07:26:15;;;;;;;;;2.33;1.33;;;;;26.30;35.36;102424.47;5096186;27;46467;-78
2023/02/28 07:28:42;;;;;;;;;3.00;2.00;;;;;26.43;34.98;102423.25;5091203;27;45418;-75
2023/02/28 07:31:07;;;;;;;;;2.00;2.00;;;;;26.54;34.71;102427.69;5114894;27;45891;-75
2023/02/28 07:33:34;;;;;;;;;3.00;3.00;;;;;26.68;34.43;102429.06;5110520;27;45978;-75
2023/02/28 07:36:08;;;;;;;;;2.00;2.00;;;;;26.80;34.44;102432.44;5108290;27;45698;-76
2023/02/28 07:38:37;;;;;;;;;3.33;2.00;;;;;26.89;34.38;102426.09;5102172;27;46392;-76
2023/02/28 07:41:07;;;;;;;;;1.00;1.00;;;;;26.94;34.25;102426.53;5088335;27;45632;-78
2023/02/28 07:43:33;;;;;;;;;2.33;2.33;;;;;27.01;34.36;102426.78;5108149;27;47520;-79
2023/02/28 07:46:08;;;;;;;;;2.67;2.67;;;;;27.12;34.50;102430.31;5111650;27;45535;-80
2023/02/28 07:48:34;;;;;;;;;2.00;2.00;;;;;27.18;34.29;102430.56;5106658;27;46497;-76
2023/02/28 07:51:00;;;;;;;;;1.33;1.33;;;;;27.31;34.11;102430.22;5086218;27;45580;-85
2023/02/28 07:53:27;;;;;;;;;1.00;1.00;;;;;27.44;34.10;102442.59;5104592;27;45488;-88
2023/02/28 07:56:00;;;;;;;;;2.00;2.00;;;;;27.53;33.79;102438.94;5092872;27;45614;-87
2023/02/28 07:58:27;;;;;;;;;2.00;2.00;;;;;27.61;33.33;102436.34;5086227;27;46236;-87
2023/02/28 08:00:52;;;;;;;;;2.00;2.00;;;;;27.69;33.72;102442.88;5086394;27;45483;-78
2023/02/28 08:03:19;;;;;;;;;4.00;4.00;;;;;27.73;33.41;102441.56;5073765;27;45462;-79
2023/02/28 08:05:45;;;;;;;;;3.00;3.00;;;;;27.69;32.72;102434.69;5074412;27;45806;-81
2023/02/28 08:08:10;;;;;;;;;3.00;3.00;;;;;27.59;32.53;102435.59;5071813;27;45616;-81
2023/02/28 08:10:36;;;;;;;;;4.00;4.00;;;;;27.57;32.81;102445.81;5074741;27;45526;-83
2023/02/28 08:13:02;;;;;;;;;2.00;2.00;;;;;27.48;32.64;102438.56;5078802;27;45489;-85
2023/02/28 08:15:27;;;;;;;;;2.00;2.00;;;;;27.47;32.66;102442.31;5073668;27;45738;-82
2023/02/28 08:17:52;;;;;;;;;3.33;3.33;;;;;27.46;32.24;102446.06;5075050;27;46896;-85
2023/02/28 08:20:18;;;;;;;;;2.33;2.33;;;;;27.48;31.99;102439.44;5076480;27;45739;-86
2023/02/28 08:22:43;;;;;;;;;2.67;2.67;;;;;27.49;32.39;102437.53;5075089;27;45704;-86
2023/02/28 08:25:09;;;;;;;;;4.33;2.33;;;;;27.53;31.76;102444.41;5084169;27;46097;-86
2023/02/28 08:27:35;;;;;;;;;2.00;2.00;;;;;27.57;31.96;102443.09;5071365;27;46963;-86
2023/02/28 08:30:01;;;;;;;;;4.33;4.00;;;;;27.58;31.99;102450.25;5070217;27;45459;-86
2023/02/28 08:32:26;;;;;;;;;5.00;4.33;;;;;27.64;32.21;102458.84;5074783;27;45525;-86
2023/02/28 08:34:52;;;;;;;;;3.67;3.00;;;;;27.71;31.59;102458.06;5072437;27;47004;-79
2023/02/28 08:37:17;;;;;;;;;2.33;2.33;;;;;27.73;32.16;102460.66;5080365;27;46604;-80
2023/02/28 08:39:42;;;;;;;;;2.00;2.00;;;;;27.82;31.83;102456.13;5072196;27;45937;-79
2023/02/28 08:42:08;;;;;;;;;2.00;2.00;;;;;27.88;31.41;102458.25;5071478;27;45486;-79
2023/02/28 08:44:33;;;;;;;;;4.00;4.00;;;;;27.96;31.90;102465.63;5073554;27;45797;-77
2023/02/28 08:46:59;;;;;;;;;5.33;5.33;;;;;28.02;31.53;102462.28;5071201;27;45839;-84
2023/02/28 08:49:24;;;;;;;;;11.00;5.00;;;;;28.06;31.93;102460.06;5073637;27;46896;-79
2023/02/28 08:51:49;;;;;;;;;6.67;4.67;;;;;28.10;31.71;102458.75;5072286;27;45715;-79
2023/02/28 08:54:19;;;;;;;;;6.33;5.00;;;;;28.15;31.21;102467.31;5093674;27;45549;-77
2023/02/28 08:56:47;;;;;;;;;6.00;4.00;;;;;28.20;31.42;102467.69;5093095;27;46380;-77
2023/02/28 08:59:13;;;;;;;;;6.00;6.00;;;;;28.24;30.88;102479.19;5089761;27;45292;-77
2023/02/28 09:01:38;;;;;;;;;4.00;4.00;;;;;28.28;30.56;102467.78;5089271;27;45354;-79
2023/02/28 09:04:04;;;;;;;;;7.00;6.33;;;;;28.32;31.45;102462.03;5093827;27;45362;-82
2023/02/28 09:06:29;;;;;;;;;5.00;4.33;;;;;28.37;31.15;102468.69;5093589;27;46088;-77
2023/02/28 09:08:59;;;;;;;;;9.00;6.00;;;;;28.41;30.65;102469.25;5097371;27;45443;-78
2023/02/28 09:11:25;;;;;;;;;4.00;3.67;;;;;28.44;31.13;102466.19;5085977;27;45755;-80
2023/02/28 09:13:50;;;;;;;;;5.00;3.00;;;;;28.46;30.56;102471.50;5094150;27;46072;-79
2023/02/28 09:16:17;;;;;;;;;4.67;3.67;;;;;28.51;30.60;102469.13;5096424;27;45367;-81
2023/02/28 09:18:43;;;;;;;;;3.67;2.67;;;;;28.52;30.89;102473.56;5092917;27;45545;-79
2023/02/28 09:21:14;;;;;;;;;4.67;4.00;;;;;28.56;30.46;102476.88;5094475;27;45493;-78
2023/02/28 09:23:45;;;;;;;;;5.33;4.00;;;;;28.57;31.02;102471.22;5076773;27;45414;-78
2023/02/28 09:26:16;;;;;;;;;3.00;3.00;;;;;28.62;31.13;102468.88;5090167;27;45414;-81
2023/02/28 09:28:41;;;;;;;;;3.67;3.33;;;;;28.66;30.21;102466.69;5086907;27;45517;-79
2023/02/28 09:31:11;;;;;;;;;4.00;3.00;;;;;28.68;30.84;102467.34;5111443;27;45518;-79
2023/02/28 09:33:36;;;;;;;;;4.33;4.33;;;;;28.67;30.91;102455.59;5089435;27;45568;-79
2023/02/28 09:36:03;;;;;;;;;4.00;4.00;;;;;28.67;30.24;102455.59;5076952;27;52594;-82
2023/02/28 09:38:28;;;;;;;;;3.00;3.00;;;;;28.68;30.22;102450.97;5077596;27;45461;-81
2023/02/28 09:41:01;;;;;;;;;3.33;3.33;;;;;28.66;30.58;102459.31;5074982;27;45361;-80
2023/02/28 09:43:33;;;;;;;;;3.00;3.00;;;;;28.69;30.47;102462.75;5090289;27;45413;-80
2023/02/28 09:46:16;;;;;;;;;5.00;3.00;;;;;28.69;30.44;102463.59;5090528;27;47486;-80
2023/02/28 09:48:46;;;;;;;;;2.67;2.67;;;;;28.65;30.42;102446.69;5084446;27;45433;-79
2023/02/28 09:51:34;;;;;;;;;3.00;3.00;;;;;28.67;30.04;102447.41;5088878;27;45911;-80
2023/02/28 09:54:00;;;;;;;;;4.67;4.00;;;;;28.67;30.77;102449.25;5072016;27;45422;-82
2023/02/28 09:56:28;;;;;;;;;3.67;3.67;;;;;28.67;30.54;102452.84;5081006;27;45403;-82
2023/02/28 09:59:00;;;;;;;;;6.67;4.33;;;;;28.66;30.58;102453.84;5095247;27;45376;-81
2023/02/28 10:01:39;;;;;;;;;2.67;2.67;;;;;28.68;30.44;102442.78;5094529;27;45596;-79
2023/02/28 10:04:26;;;;;;;;;5.33;3.00;;;;;28.69;30.29;102446.38;5087679;27;45423;-79
2023/02/28 10:06:52;;;;;;;;;4.33;3.00;;;;;28.69;30.64;102440.91;5095321;27;45468;-77
2023/02/28 10:09:26;;;;;;;;;4.00;4.00;;;;;28.69;30.56;102447.22;5099956;27;45406;-79
2023/02/28 10:11:56;;;;;;;;;3.67;3.67;;;;;28.68;30.22;102445.50;5111293;27;45577;-79
2023/02/28 10:14:24;;;;;;;;;2.67;2.67;;;;;28.68;30.62;102442.78;5115782;27;45429;-78
2023/02/28 10:17:20;;;;;;;;;5.00;3.33;;;;;28.69;30.10;102436.28;5108520;27;45501;-79
2023/02/28 10:19:49;;;;;;;;;4.00;2.33;;;;;28.71;30.63;102428.78;5074178;27;45549;-79
2023/02/28 10:22:24;;;;;;;;;5.00;5.00;;;;;28.73;30.28;102428.63;5092043;27;45564;-78
2023/02/28 10:24:52;;;;;;;;;3.00;3.00;;;;;28.75;30.00;102427.44;5111143;27;45566;-80
2023/02/28 10:27:31;;;;;;;;;3.00;3.00;;;;;28.79;30.69;102431.56;5109021;27;45653;-80
2023/02/28 10:30:00;;;;;;;;;2.00;2.00;;;;;28.83;30.73;102428.50;5095596;27;45362;-79
2023/02/28 10:32:33;;;;;;;;;4.00;2.67;;;;;28.87;30.87;102419.81;5083196;27;45570;-77
2023/02/28 10:35:18;;;;;;;;;5.00;4.00;;;;;28.91;30.32;102421.25;5094477;27;45534;-77
2023/02/28 10:37:47;;;;;;;;;2.67;1.33;;;;;28.97;30.37;102416.13;5094766;27;47017;-87
2023/02/28 10:40:18;;;;;;;;;5.33;5.00;;;;;28.99;30.63;102409.47;5093576;27;45415;-74
2023/02/28 10:42:55;;;;;;;;;5.67;4.00;;;;;28.95;30.27;102410.81;5094621;27;45799;-79
2023/02/28 10:45:23;;;;;;;;;4.33;4.33;;;;;28.90;30.38;102399.53;5101444;27;45524;-82
2023/02/28 10:47:55;;;;;;;;;2.67;2.67;;;;;28.82;29.85;102399.47;5105329;27;46190;-79
2023/02/28 10:50:49;;;;;;;;;5.00;3.67;;;;;28.71;29.92;102397.88;5091657;27;45485;-81
2023/02/28 10:53:17;;;;;;;;;4.00;4.00;;;;;28.63;29.67;102398.69;5087918;27;45557;-81
2023/02/28 10:55:43;;;;;;;;;6.00;4.00;;;;;28.57;29.61;102396.63;5093444;27;45535;-83
2023/02/28 10:58:53;;;;;;;;;4.00;4.00;;;;;28.58;29.54;102401.06;5074291;27;45762;-84
2023/02/28 11:01:33;;;;;;;;;4.00;2.33;;;;;28.60;29.98;102399.03;5075084;27;45362;-77
2023/02/28 11:03:59;;;;;;;;;2.00;2.00;;;;;28.62;29.67;102402.47;5091075;27;45697;-79
2023/02/28 11:06:33;;;;;;;;;3.67;3.67;;;;;28.66;30.24;102395.66;5094612;27;45543;-82
2023/02/28 11:09:02;;;;;;;;;3.67;3.67;;;;;28.71;29.49;102395.16;5093617;27;46232;-80
2023/02/28 11:11:31;;;;;;;;;4.00;3.00;;;;;28.73;29.83;102384.94;5080214;27;45555;-79
2023/02/28 11:14:03;;;;;;;;;6.00;3.33;;;;;28.76;29.59;102374.50;5092893;27;45352;-84
2023/02/28 11:16:34;;;;;;;;;2.67;2.67;;;;;28.74;29.80;102386.63;5088271;27;45399;-85
2023/02/28 11:19:01;;;;;;;;;3.67;3.67;;;;;28.64;29.78;102384.88;5073980;27;46452;-85
2023/02/28 11:21:31;;;;;;;;;5.67;4.00;;;;;28.51;28.96;102384.47;5093180;27;45876;-84
2023/02/28 11:24:05;;;;;;;;;4.67;3.67;;;;;28.38;28.96;102383.06;5082457;27;45522;-85
2023/02/28 11:26:43;;;;;;;;;7.00;5.33;;;;;28.24;29.31;102370.84;5091665;27;45434;-85
2023/02/28 11:29:12;;;;;;;;;7.00;4.00;;;;;28.15;29.35;102380.84;5083821;27;45351;-85
2023/02/28 11:31:37;;;;;;;;;3.33;3.00;;;;;28.07;28.96;102369.84;5097195;27;45704;-84
2023/02/28 11:34:24;;;;;;;;;4.00;4.00;;;;;28.05;29.46;102373.75;5107019;27;45767;-86
2023/02/28 11:36:49;;;;;;;;;4.00;4.00;;;;;28.01;29.11;102357.72;5113421;27;45690;-85
2023/02/28 11:39:17;;;;;;;;;4.00;2.67;;;;;28.02;29.41;102370.34;5090779;27;46749;-84
2023/02/28 11:42:16;;;;;;;;;3.00;3.00;;;;;28.02;29.55;102364.91;5089652;27;45478;-84
2023/02/28 11:44:55;;;;;;;;;2.00;2.00;;;;;28.02;29.11;102367.63;5097787;27;45465;-84
2023/02/28 11:47:36;;;;;;;;;3.00;3.00;;;;;28.03;28.84;102360.28;5097063;27;45485;-84
2023/02/28 11:50:32;;;;;;;;;3.33;2.00;;;;;28.04;29.37;102362.00;5086901;27;46424;-85
2023/02/28 11:53:00;;;;;;;;;2.33;2.33;;;;;28.05;29.11;102365.56;5109516;27;45436;-83
2023/02/28 11:55:44;;;;;;;;;3.00;3.00;;;;;28.06;29.32;102359.09;5092282;27;45600;-85
2023/02/28 11:58:40;;;;;;;;;4.00;3.00;;;;;28.06;28.77;102343.59;5092113;27;45463;-84
2023/02/28 12:01:15;;;;;;;;;3.00;2.00;;;;;28.06;29.30;102346.31;5105159;27;47334;-84
2023/02/28 12:03:41;;;;;;;;;2.33;2.33;;;;;28.10;29.38;102342.25;5103798;27;45473;-83
2023/02/28 12:06:15;;;;;;;;;2.00;2.00;;;;;28.10;28.76;102339.53;5090743;27;45478;-86
2023/02/28 12:09:02;;;;;;;;;4.33;3.00;;;;;28.13;28.71;102333.72;5096291;27;45430;-79
2023/02/28 12:11:35;;;;;;;;;2.00;2.00;;;;;28.12;29.05;102333.91;5117401;27;47056;-78
2023/02/28 12:14:42;;;;;;;;;3.33;3.00;;;;;28.19;29.30;102315.00;5097161;27;45414;-79
2023/02/28 12:17:40;;;;;;;;;5.00;2.33;;;;;28.28;29.09;102317.63;5095297;27;45447;-80
2023/02/28 12:20:24;;;;;;;;;2.00;2.00;;;;;28.42;28.97;102315.31;5095491;27;45583;-80
2023/02/28 12:23:08;;;;;;;;;5.67;4.00;;;;;28.56;28.71;102311.09;5095039;27;46168;-79
2023/02/28 12:25:58;;;;;;;;;2.33;2.33;;;;;28.70;28.90;102300.56;5084129;27;45501;-80
2023/02/28 12:28:29;;;;;;;;;2.33;1.67;;;;;28.80;28.84;102306.72;5076759;27;45432;-79
2023/02/28 12:31:01;;;;;;;;;2.67;2.67;;;;;28.88;28.17;102301.31;5076613;27;45561;-80
2023/02/28 12:33:33;;;;;;;;;3.67;2.33;;;;;28.90;28.46;102306.63;5076711;27;45945;-82
2023/02/28 12:36:03;;;;;;;;;2.33;2.33;;;;;28.85;28.51;102298.88;5093166;27;46707;-84
2023/02/28 12:38:40;;;;;;;;;2.67;2.67;;;;;28.74;28.59;102300.06;5103104;27;45457;-78
2023/02/28 12:41:14;;;;;;;;;3.00;2.67;;;;;28.71;28.44;102291.34;5099624;27;45633;-80
2023/02/28 12:43:46;;;;;;;;;5.00;3.00;;;;;28.72;28.97;102280.25;5099447;27;46112;-79
2023/02/28 12:46:21;;;;;;;;;1.00;1.00;;;;;28.77;28.85;102285.22;5096969;27;45822;-82
2023/02/28 12:48:50;;;;;;;;;1.67;1.67;;;;;28.83;29.05;102283.69;5077980;27;45439;-80
2023/02/28 12:51:18;;;;;;;;;3.33;3.33;;;;;28.85;28.59;102279.75;5096071;27;45361;-82
2023/02/28 12:53:53;;;;;;;;;3.00;3.00;;;;;28.88;28.47;102276.72;5112915;27;45424;-81
2023/02/28 12:57:06;;;;;;;;;3.00;3.00;;;;;28.89;28.44;102277.59;5083328;27;45453;-84
2023/02/28 12:59:39;;;;;;;;;3.00;2.33;;;;;28.88;28.60;102268.53;5091353;27;45687;-84
2023/02/28 13:02:22;;;;;;;;;3.00;3.00;;;;;28.87;28.34;102264.06;5082908;27;45341;-83
2023/02/28 13:05:30;;;;;;;;;2.00;2.00;;;;;28.87;28.42;102260.47;5082819;27;46008;-83
2023/02/28 13:08:36;;;;;;;;;3.67;3.00;;;;;28.91;28.50;102256.41;5066895;28;45494;-82
2023/02/28 13:11:02;;;;;;;;;2.00;2.00;;;;;28.93;28.78;102257.94;4985614;28;46518;-84
2023/02/28 13:13:30;;;;;;;;;1.67;1.33;;;;;28.94;28.84;102253.34;4976806;28;45564;-84
2023/02/28 13:15:59;;;;;;;;;2.00;2.00;;;;;28.95;28.89;102256.91;4976578;28;45510;-84
2023/02/28 13:18:44;;;;;;;;;2.00;2.00;;;;;28.95;28.79;102248.72;4972484;28;45431;-90
2023/02/28 13:21:26;;;;;;;;;3.00;3.00;;;;;28.98;28.31;102251.13;4972379;28;45662;-85
2023/02/28 13:23:55;;;;;;;;;3.00;2.00;;;;;29.01;28.45;102242.59;4991285;28;45641;-80
2023/02/28 13:26:21;;;;;;;;;2.00;2.00;;;;;29.04;28.77;102255.91;4974456;28;46145;-82
2023/02/28 13:29:11;;;;;;;;;2.00;2.00;;;;;29.09;28.27;102248.03;4972948;28;45500;-82
2023/02/28 13:32:08;;;;;;;;;2.00;1.67;;;;;29.16;28.38;102248.22;4973713;28;45355;-83
2023/02/28 13:34:51;;;;;;;;;3.00;2.00;;;;;29.18;29.11;102236.09;4971343;28;45378;-85
2023/02/28 13:37:32;;;;;;;;;3.33;1.67;;;;;29.19;28.69;102247.91;4976021;28;45642;-85
2023/02/28 13:40:26;;;;;;;;;2.00;2.00;;;;;29.19;28.91;102246.00;4973837;28;45435;-93
2023/02/28 13:42:52;;;;;;;;;2.00;2.00;;;;;29.17;28.32;102242.59;5050796;28;45542;-86
2023/02/28 13:45:23;;;;;;;;;1.33;1.33;;;;;29.20;28.79;102241.38;5078732;27;45683;-83
2023/02/28 13:47:54;;;;;;;;;3.00;2.00;;;;;29.24;28.62;102241.91;5097066;27;46329;-81
2023/02/28 13:50:25;;;;;;;;;2.00;2.00;;;;;29.29;28.62;102236.75;5091839;27;45588;-80
2023/02/28 13:53:14;;;;;;;;;3.00;2.00;;;;;29.35;29.07;102247.03;5081935;27;45459;-81
2023/02/28 13:55:57;;;;;;;;;3.00;3.00;;;;;29.42;28.62;102236.25;5081424;27;45656;-82
2023/02/28 13:58:41;;;;;;;;;3.00;1.00;;;;;29.45;28.63;102228.56;5078840;27;45447;-84
2023/02/28 14:01:44;;;;;;;;;1.67;1.33;;;;;29.48;28.65;102230.09;5095466;27;46901;-88
2023/02/28 14:04:40;;;;;;;;;3.67;2.67;;;;;29.49;28.42;102234.53;5095000;27;45390;-88
2023/02/28 14:07:07;;;;;;;;;3.00;3.00;;;;;29.45;28.96;102238.63;5083756;27;45339;-87
2023/02/28 14:09:45;;;;;;;;;1.33;1.33;;;;;29.32;28.12;102241.91;5072991;27;45351;-90
2023/02/28 14:12:48;;;;;;;;;2.00;2.00;;;;;29.18;28.62;102240.72;5079195;27;45480;-85
2023/02/28 14:15:35;;;;;;;;;1.33;1.33;;;;;29.08;28.04;102237.28;5086803;27;45781;-85
2023/02/28 14:18:03;;;;;;;;;1.33;1.33;;;;;29.07;27.83;102236.44;5089076;27;45556;-85
2023/02/28 14:20:33;;;;;;;;;1.00;1.00;;;;;29.08;28.17;102240.88;5092047;27;46359;-82
2023/02/28 14:23:24;;;;;;;;;2.33;2.00;;;;;29.08;28.30;102237.28;5074812;27;45665;-81
2023/02/28 14:26:31;;;;;;;;;3.00;1.00;;;;;29.08;28.21;102234.53;5089251;27;45471;-82
2023/02/28 14:29:09;;;;;;;;;2.00;2.00;;;;;29.07;28.09;102239.19;5062296;27;45365;-82
2023/02/28 14:31:45;;;;;;;;;2.00;2.00;;;;;29.07;28.24;102236.44;5058761;27;45535;-89
2023/02/28 14:34:53;;;;;;;;;2.00;2.00;;;;;29.05;28.22;102230.28;5069105;27;45444;-83
2023/02/28 14:37:29;;;;;;;;;1.00;1.00;;;;;29.04;28.12;102234.91;5061151;27;45479;-85
2023/02/28 14:39:56;;;;;;;;;1.00;1.00;;;;;29.00;28.44;102238.13;5070903;27;45867;-83
2023/02/28 14:42:33;;;;;;;;;1.33;1.33;;;;;28.96;28.29;102225.81;5086545;27;46153;-81
2023/02/28 14:44:59;;;;;;;;;2.00;2.00;;;;;28.91;27.76;102231.81;5072076;27;45664;-84
2023/02/28 14:47:30;;;;;;;;;2.00;1.00;;;;;28.88;27.88;102232.09;5066209;28;45393;-87
2023/02/28 14:49:57;;;;;;;;;0.00;0.00;;;;;28.88;28.56;102234.84;5058786;28;47791;-84
2023/02/28 14:52:32;;;;;;;;;2.00;2.00;;;;;28.87;28.56;102224.94;5071205;27;46378;-87
2023/02/28 14:55:12;;;;;;;;;3.67;1.33;;;;;28.84;28.50;102234.34;5076994;27;45426;-82
2023/02/28 14:57:49;;;;;;;;;1.33;1.33;;;;;28.81;28.10;102229.19;5070031;28;45411;-80
2023/02/28 15:00:30;;;;;;;;;3.00;3.00;;;;;28.76;28.14;102223.38;5070575;28;45609;-88
2023/02/28 15:02:58;;;;;;;;;1.33;1.00;;;;;28.72;28.46;102219.31;5078749;27;46201;-84
2023/02/28 15:05:33;;;;;;;;;3.33;2.00;;;;;28.68;28.89;102232.44;5093110;27;45437;-81
2023/02/28 15:08:14;;;;;;;;;1.00;1.00;;;;;28.66;28.11;102229.03;5088139;27;45531;-81
2023/02/28 15:10:50;;;;;;;;;2.00;2.00;;;;;28.66;28.27;102229.84;5095673;27;45756;-81
2023/02/28 15:13:16;;;;;;;;;1.67;1.67;;;;;28.63;28.17;102223.88;5099251;27;46864;-81
2023/02/28 15:15:50;;;;;;;;;0.33;0.33;;;;;28.65;28.09;102221.84;5092475;27;45557;-80
2023/02/28 15:18:36;;;;;;;;;1.00;1.00;;;;;28.63;28.12;102234.81;5081191;27;45625;-80
2023/02/28 15:21:06;;;;;;;;;2.00;2.00;;;;;28.62;27.92;102233.97;5080918;27;45488;-80
2023/02/28 15:23:34;;;;;;;;;3.00;2.00;;;;;28.59;28.15;102226.09;5075464;27;47606;-81
2023/02/28 15:26:00;;;;;;;;;2.00;2.00;;;;;28.58;28.72;102227.13;5077288;27;45474;-81
2023/02/28 15:28:25;;;;;;;;;1.00;1.00;;;;;28.58;28.73;102224.41;5076671;27;45303;-81
2023/02/28 15:30:59;;;;;;;;;2.00;2.00;;;;;28.58;28.15;102227.13;5077031;27;45458;-82
2023/02/28 15:33:30;;;;;;;;;3.67;2.00;;;;;28.56;28.47;102223.69;5087365;27;45522;-82
2023/02/28 15:36:15;;;;;;;;;1.00;1.00;;;;;28.56;28.20;102226.44;5077070;27;45362;-81
2023/02/28 15:38:43;;;;;;;;;2.00;2.00;;;;;28.55;28.56;102227.47;5098057;27;45345;-82
2023/02/28 15:41:24;;;;;;;;;2.00;1.33;;;;;28.56;28.56;102229.16;5097205;27;45424;-81
2023/02/28 15:44:26;;;;;;;;;1.00;1.00;;;;;28.56;28.87;102223.69;5092174;27;45364;-84
2023/02/28 15:47:03;;;;;;;;;1.67;1.67;;;;;28.58;28.38;102223.53;5084568;27;45546;-81
2023/02/28 15:49:38;;;;;;;;;2.67;2.00;;;;;28.56;28.46;102212.78;5082498;27;45482;-83
2023/02/28 15:52:04;;;;;;;;;2.33;2.00;;;;;28.53;28.64;102221.31;5073167;27;45552;-77
2023/02/28 15:54:34;;;;;;;;;9.33;5.00;;;;;28.44;28.78;102214.13;5072577;27;46561;-80
2023/02/28 19:14:33;;;;;;;;;5.00;5.00;;;;;18.28;35.16;102322.19;5059031;27;46743;-76
2023/02/28 19:16:59;;;;;;;;;3.50;3.50;;;;;18.85;36.02;102330.31;5044758;28;45701;-77
2023/02/28 19:19:24;;;;;;;;;4.50;4.50;;;;;19.69;35.89;102327.56;5044779;27;45609;-77
2023/02/28 19:21:49;;;;;;;;;5.00;5.00;;;;;20.55;35.89;102330.66;5047864;27;46468;-77
2023/02/28 19:24:15;;;;;;;;;4.00;3.00;;;;;21.35;35.97;102328.50;5045368;28;45491;-77
2023/02/28 19:26:40;;;;;;;;;3.25;3.25;;;;;22.13;35.35;102325.34;5043528;28;45591;-77
2023/02/28 19:29:06;;;;;;;;;3.00;3.00;;;;;22.75;35.24;102336.69;5043344;28;45546;-77
2023/02/28 19:31:31;;;;;;;;;5.00;3.00;;;;;23.29;34.59;102327.81;5044635;27;45655;-76
2023/02/28 19:33:57;;;;;;;;;4.00;2.00;;;;;23.77;34.21;102329.25;5047424;28;46304;-77
2023/02/28 19:36:23;;;;;;;;;4.00;4.00;;;;;24.17;33.70;102332.22;5045937;27;45522;-76
2023/02/28 19:38:49;;;;;;;;;3.00;3.00;;;;;24.53;33.81;102329.09;5048312;28;47218;-76
2023/02/28 19:41:16;;;;;;;;;5.00;3.33;;;;;24.84;33.69;102338.09;5045267;28;45966;-77
2023/02/28 19:43:41;;;;;;;;;5.00;4.67;;;;;25.12;33.38;102337.44;5046681;27;46558;-77
2023/02/28 19:46:08;;;;;;;;;3.00;3.00;;;;;25.38;33.18;102337.72;5052652;27;45586;-77
2023/02/28 19:48:34;;;;;;;;;4.00;2.33;;;;;25.61;33.05;102336.59;5054237;28;45954;-76
2023/02/28 19:51:05;;;;;;;;;3.00;2.33;;;;;25.78;32.95;102329.56;5054937;27;45657;-80
2023/02/28 19:53:32;;;;;;;;;5.00;4.00;;;;;25.97;32.66;102331.41;5038897;28;46564;-78
2023/02/28 19:55:59;;;;;;;;;4.33;3.00;;;;;26.13;32.46;102333.53;5042293;27;47045;-79
2023/02/28 19:58:25;;;;;;;;;3.00;3.00;;;;;26.26;32.19;102330.50;5047992;27;45538;-79
2023/02/28 20:00:51;;;;;;;;;3.00;3.00;;;;;26.40;32.56;102331.03;5049080;27;47072;-80
2023/02/28 20:03:19;;;;;;;;;4.33;3.00;;;;;26.51;31.96;102325.38;5048962;27;46787;-78
2023/02/28 20:05:45;;;;;;;;;3.00;3.00;;;;;26.60;31.67;102326.31;5045082;28;45750;-80
2023/02/28 20:08:11;;;;;;;;;3.33;3.33;;;;;26.71;32.02;102330.72;5043898;28;45578;-79
2023/02/28 20:10:37;;;;;;;;;3.00;3.00;;;;;26.77;31.56;102332.81;5042954;28;45630;-80
2023/02/28 20:13:03;;;;;;;;;4.33;3.00;;;;;26.87;31.74;102329.19;5054003;27;46828;-78
2023/02/28 20:15:29;;;;;;;;;3.00;3.00;;;;;26.92;31.40;102330.47;5064091;27;45689;-78
2023/02/28 20:17:56;;;;;;;;;2.00;2.00;;;;;26.99;31.46;102324.41;5064356;27;45692;-77
2023/02/28 20:20:22;;;;;;;;;2.67;2.67;;;;;27.05;31.73;102330.09;5063995;27;45693;-78
2023/02/28 20:22:48;;;;;;;;;2.67;2.67;;;;;27.09;31.34;102328.78;5067260;27;46715;-76
2023/02/28 20:25:13;;;;;;;;;2.00;2.00;;;;;27.12;31.42;102330.34;5053846;27;45672;-76
2023/02/28 20:27:38;;;;;;;;;4.00;2.67;;;;;27.16;30.82;102336.34;5054836;28;46073;-77
2023/02/28 20:30:04;;;;;;;;;2.67;2.67;;;;;27.17;31.30;102332.59;5051287;28;47098;-76
2023/02/28 20:32:30;;;;;;;;;3.33;3.33;;;;;27.21;31.40;102331.28;5053368;27;46567;-75
2023/02/28 20:34:55;;;;;;;;;4.00;3.67;;;;;27.22;31.24;102333.84;5059319;28;45422;-77
2023/02/28 20:37:20;;;;;;;;;3.00;2.67;;;;;27.23;31.19;102338.28;5060875;27;45600;-78
2023/02/28 20:39:48;;;;;;;;;3.00;3.00;;;;;27.22;30.88;102327.56;5064758;28;45594;-78
2023/02/28 20:42:13;;;;;;;;;3.67;3.67;;;;;27.16;30.54;102330.88;5062936;27;46230;-77
2023/02/28 20:44:39;;;;;;;;;4.00;4.00;;;;;27.13;30.31;102333.94;5055088;27;45413;-78
2023/02/28 20:47:04;;;;;;;;;4.67;4.67;;;;;27.12;30.47;102334.94;5051914;27;45844;-78
2023/02/28 20:49:29;;;;;;;;;3.67;3.67;;;;;27.17;30.43;102341.63;5061145;27;45571;-75
2023/02/28 20:51:55;;;;;;;;;3.00;3.00;;;;;27.21;30.87;102334.88;5055702;28;45985;-75
2023/02/28 20:54:20;;;;;;;;;2.00;2.00;;;;;27.28;30.37;102335.09;5063565;28;45467;-76
2023/02/28 20:56:46;;;;;;;;;3.00;2.00;;;;;27.35;30.59;102330.72;5054226;27;45951;-77
2023/02/28 20:59:12;;;;;;;;;2.67;2.67;;;;;27.39;30.63;102334.03;5055005;27;47142;-78
2023/02/28 21:01:39;;;;;;;;;3.00;3.00;;;;;27.48;30.16;102340.41;5051374;27;45504;-78
2023/02/28 21:04:05;;;;;;;;;2.00;2.00;;;;;27.54;30.55;102341.66;5056791;28;45801;-78
2023/02/28 21:06:36;;;;;;;;;2.00;2.00;;;;;27.59;30.72;102339.31;5048731;28;46134;-76
2023/02/28 21:09:05;;;;;;;;;3.00;3.00;;;;;27.64;30.10;102339.72;5050937;27;45666;-77
2023/02/28 21:11:33;;;;;;;;;3.00;3.00;;;;;27.69;30.12;102334.63;5049880;28;47253;-76
2023/02/28 21:14:19;;;;;;;;;4.00;2.33;;;;;27.72;29.76;102336.19;5051246;27;46257;-79
2023/02/28 21:16:45;;;;;;;;;3.00;3.00;;;;;27.75;30.64;102335.88;5053213;27;45535;-76
